sensor_id;sensor_type;location;lat;lon;timestamp;pressure;altitude;pressure_sealevel;temperature;humidity
69187;BME280;56301;56.864;60.554;2023-03-13T00:02:14;98956.41;;;24.36;37.10
69187;BME280;56301;56.864;60.554;2023-03-13T00:04:37;98958.66;;;24.41;36.81
69187;BME280;56301;56.864;60.554;2023-03-13T00:06:59;98960.31;;;24.42;37.10
69187;BME280;56301;56.864;60.554;2023-03-13T00:09:22;98961.16;;;24.42;37.33
69187;BME280;56301;56.864;60.554;2023-03-13T00:11:44;98957.63;;;24.42;37.13
69187;BME280;56301;56.864;60.554;2023-03-13T00:14:07;98945.13;;;24.41;37.58
69187;BME280;56301;56.864;60.554;2023-03-13T00:16:29;98949.50;;;24.42;37.35
69187;BME280;56301;56.864;60.554;2023-03-13T00:18:52;98951.84;;;24.45;36.73
69187;BME280;56301;56.864;60.554;2023-03-13T00:21:16;98944.59;;;24.45;37.20
69187;BME280;56301;56.864;60.554;2023-03-13T00:23:39;98944.78;;;24.44;37.68
69187;BME280;56301;56.864;60.554;2023-03-13T00:26:04;98944.78;;;24.44;37.59
69187;BME280;56301;56.864;60.554;2023-03-13T00:28:27;98945.78;;;24.43;37.16
69187;BME280;56301;56.864;60.554;2023-03-13T00:30:50;98939.53;;;24.42;37.61
69187;BME280;56301;56.864;60.554;2023-03-13T00:33:12;98944.09;;;24.42;36.88
69187;BME280;56301;56.864;60.554;2023-03-13T00:35:35;98944.09;;;24.42;36.99
69187;BME280;56301;56.864;60.554;2023-03-13T00:37:57;98944.09;;;24.42;37.43
69187;BME280;56301;56.864;60.554;2023-03-13T00:40:20;98946.78;;;24.42;37.51
69187;BME280;56301;56.864;60.554;2023-03-13T00:42:42;98945.13;;;24.41;36.61
69187;BME280;56301;56.864;60.554;2023-03-13T00:45:05;98936.16;;;24.40;36.57
69187;BME280;56301;56.864;60.554;2023-03-13T00:47:27;98939.00;;;24.39;37.07
69187;BME280;56301;56.864;60.554;2023-03-13T00:49:50;98941.91;;;24.37;36.86
69187;BME280;56301;56.864;60.554;2023-03-13T00:52:12;98939.00;;;24.39;37.05
69187;BME280;56301;56.864;60.554;2023-03-13T00:54:35;98942.41;;;24.41;37.08
69187;BME280;56301;56.864;60.554;2023-03-13T00:56:58;98937.84;;;24.41;37.08
69187;BME280;56301;56.864;60.554;2023-03-13T00:59:20;98940.72;;;24.40;37.22
69187;BME280;56301;56.864;60.554;2023-03-13T01:01:42;98938.69;;;24.42;36.79
69187;BME280;56301;56.864;60.554;2023-03-13T01:04:06;98941.19;;;24.43;37.24
69187;BME280;56301;56.864;60.554;2023-03-13T01:06:29;98936.81;;;24.42;37.48
69187;BME280;56301;56.864;60.554;2023-03-13T01:08:53;98928.69;;;24.42;36.83
69187;BME280;56301;56.864;60.554;2023-03-13T01:11:17;98927.03;;;24.41;37.06
69187;BME280;56301;56.864;60.554;2023-03-13T01:13:40;98924.97;;;24.43;37.17
69187;BME280;56301;56.864;60.554;2023-03-13T01:16:04;98924.13;;;24.43;37.04
69187;BME280;56301;56.864;60.554;2023-03-13T01:18:27;98915.03;;;24.44;37.18
69187;BME280;56301;56.864;60.554;2023-03-13T01:20:49;98908.75;;;24.43;36.95
69187;BME280;56301;56.864;60.554;2023-03-13T01:23:13;98906.91;;;24.44;36.76
69187;BME280;56301;56.864;60.554;2023-03-13T01:25:36;98897.06;;;24.51;37.17
69187;BME280;56301;56.864;60.554;2023-03-13T01:27:59;98896.09;;;24.44;37.93
69187;BME280;56301;56.864;60.554;2023-03-13T01:30:23;98900.50;;;24.37;38.04
69187;BME280;56301;56.864;60.554;2023-03-13T01:32:46;98906.25;;;24.34;37.27
69187;BME280;56301;56.864;60.554;2023-03-13T01:35:08;98906.91;;;24.36;37.13
69187;BME280;56301;56.864;60.554;2023-03-13T01:37:33;98893.91;;;24.39;36.64
69187;BME280;56301;56.864;60.554;2023-03-13T01:39:55;98889.59;;;24.53;36.55
69187;BME280;56301;56.864;60.554;2023-03-13T01:42:17;98897.63;;;24.61;35.36
69187;BME280;56301;56.864;60.554;2023-03-13T01:44:50;98896.94;;;24.67;35.96
69187;BME280;56301;56.864;60.554;2023-03-13T01:47:13;98891.81;;;24.72;35.86
69187;BME280;56301;56.864;60.554;2023-03-13T01:49:54;98890.13;;;24.71;35.78
69187;BME280;56301;56.864;60.554;2023-03-13T01:52:37;98891.31;;;24.69;35.11
69187;BME280;56301;56.864;60.554;2023-03-13T01:55:11;98889.50;;;24.69;35.06
69187;BME280;56301;56.864;60.554;2023-03-13T01:57:42;98882.38;;;24.68;35.54
69187;BME280;56301;56.864;60.554;2023-03-13T02:00:10;98879.19;;;24.65;35.23
69187;BME280;56301;56.864;60.554;2023-03-13T02:02:37;98882.72;;;24.65;35.45
69187;BME280;56301;56.864;60.554;2023-03-13T02:05:02;98880.03;;;24.65;35.13
69187;BME280;56301;56.864;60.554;2023-03-13T02:07:27;98874.13;;;24.62;34.64
69187;BME280;56301;56.864;60.554;2023-03-13T02:09:51;98872.81;;;24.58;35.42
69187;BME280;56301;56.864;60.554;2023-03-13T02:12:16;98863.38;;;24.54;35.42
69187;BME280;56301;56.864;60.554;2023-03-13T02:14:41;98875.03;;;24.54;35.57
69187;BME280;56301;56.864;60.554;2023-03-13T02:17:05;98871.84;;;24.50;35.39
69187;BME280;56301;56.864;60.554;2023-03-13T02:22:43;98857.75;;;24.32;37.07
69187;BME280;56301;56.864;60.554;2023-03-13T02:27:20;98860.31;;;24.25;38.38
69187;BME280;56301;56.864;60.554;2023-03-13T02:29:43;98855.09;;;24.24;38.17
69187;BME280;56301;56.864;60.554;2023-03-13T02:32:05;98854.41;;;24.22;38.89
69187;BME280;56301;56.864;60.554;2023-03-13T02:34:29;98856.47;;;24.20;37.13
69187;BME280;56301;56.864;60.554;2023-03-13T02:36:54;98851.91;;;24.20;36.98
69187;BME280;56301;56.864;60.554;2023-03-13T02:39:17;98848.56;;;24.18;37.91
69187;BME280;56301;56.864;60.554;2023-03-13T02:41:42;98854.13;;;24.17;37.07
69187;BME280;56301;56.864;60.554;2023-03-13T02:44:06;98853.28;;;24.16;37.92
69187;BME280;56301;56.864;60.554;2023-03-13T02:46:29;98855.31;;;24.14;37.34
69187;BME280;56301;56.864;60.554;2023-03-13T02:48:53;98854.47;;;24.14;37.50
69187;BME280;56301;56.864;60.554;2023-03-13T02:53:46;98854.47;;;24.14;38.47
69187;BME280;56301;56.864;60.554;2023-03-13T02:56:12;98844.50;;;24.14;37.60
69187;BME280;56301;56.864;60.554;2023-03-13T02:58:42;98848.22;;;24.13;37.38
69187;BME280;56301;56.864;60.554;2023-03-13T03:01:05;98849.25;;;24.12;37.63
69187;BME280;56301;56.864;60.554;2023-03-13T03:03:28;98845.72;;;24.12;38.21
69187;BME280;56301;56.864;60.554;2023-03-13T03:05:50;98841.16;;;24.12;37.98
69187;BME280;56301;56.864;60.554;2023-03-13T03:08:13;98842.16;;;24.11;38.15
69187;BME280;56301;56.864;60.554;2023-03-13T03:10:36;98840.47;;;24.10;37.60
69187;BME280;56301;56.864;60.554;2023-03-13T03:12:59;98841.50;;;24.09;38.00
69187;BME280;56301;56.864;60.554;2023-03-13T03:15:22;98837.13;;;24.08;37.66
69187;BME280;56301;56.864;60.554;2023-03-13T03:17:45;98832.72;;;24.07;38.86
69187;BME280;56301;56.864;60.554;2023-03-13T03:20:07;98837.28;;;24.07;38.08
69187;BME280;56301;56.864;60.554;2023-03-13T03:22:30;98834.56;;;24.07;38.08
69187;BME280;56301;56.864;60.554;2023-03-13T03:24:52;98838.97;;;24.08;37.36
69187;BME280;56301;56.864;60.554;2023-03-13T03:27:15;98838.97;;;24.08;38.39
69187;BME280;56301;56.864;60.554;2023-03-13T03:29:43;98848.94;;;24.07;38.54
69187;BME280;56301;56.864;60.554;2023-03-13T03:32:06;98836.94;;;24.10;38.44
69187;BME280;56301;56.864;60.554;2023-03-13T03:34:28;98836.09;;;24.09;37.63
69187;BME280;56301;56.864;60.554;2023-03-13T03:36:51;98833.38;;;24.09;37.77
69187;BME280;56301;56.864;60.554;2023-03-13T03:39:14;98838.13;;;24.07;37.57
69187;BME280;56301;56.864;60.554;2023-03-13T03:41:36;98836.28;;;24.08;37.24
69187;BME280;56301;56.864;60.554;2023-03-13T03:43:59;98836.78;;;24.03;37.86
69187;BME280;56301;56.864;60.554;2023-03-13T03:46:29;98836.94;;;24.10;38.10
69187;BME280;56301;56.864;60.554;2023-03-13T03:48:52;98835.06;;;24.10;38.26
69187;BME280;56301;56.864;60.554;2023-03-13T03:51:15;98836.94;;;24.10;37.68
69187;BME280;56301;56.864;60.554;2023-03-13T03:53:40;98831.53;;;24.10;37.14
69187;BME280;56301;56.864;60.554;2023-03-13T03:56:02;98826.94;;;24.10;37.40
69187;BME280;56301;56.864;60.554;2023-03-13T03:58:25;98831.38;;;24.03;38.08
69187;BME280;56301;56.864;60.554;2023-03-13T04:01:12;98831.22;;;24.05;38.05
69187;BME280;56301;56.864;60.554;2023-03-13T04:03:34;98831.44;;;23.95;37.66
69187;BME280;56301;56.864;60.554;2023-03-13T04:05:57;98832.63;;;23.92;37.12
69187;BME280;56301;56.864;60.554;2023-03-13T04:08:20;98828.09;;;23.85;36.79
69187;BME280;56301;56.864;60.554;2023-03-13T04:10:43;98832.19;;;23.81;36.95
69187;BME280;56301;56.864;60.554;2023-03-13T04:13:06;98834.88;;;23.81;36.86
69187;BME280;56301;56.864;60.554;2023-03-13T04:15:29;98830.31;;;23.81;36.80
69187;BME280;56301;56.864;60.554;2023-03-13T04:17:52;98836.75;;;23.80;36.25
69187;BME280;56301;56.864;60.554;2023-03-13T04:20:17;98827.81;;;23.80;36.71
69187;BME280;56301;56.864;60.554;2023-03-13T04:22:40;98828.81;;;23.78;36.39
69187;BME280;56301;56.864;60.554;2023-03-13T04:25:03;98834.22;;;23.78;36.54
69187;BME280;56301;56.864;60.554;2023-03-13T04:27:28;98835.06;;;23.79;36.42
69187;BME280;56301;56.864;60.554;2023-03-13T04:29:50;98834.22;;;23.78;36.25
69187;BME280;56301;56.864;60.554;2023-03-13T04:32:36;98825.44;;;23.76;36.47
69187;BME280;56301;56.864;60.554;2023-03-13T04:35:04;98830.66;;;23.78;36.94
69187;BME280;56301;56.864;60.554;2023-03-13T04:37:36;98827.13;;;23.77;37.31
69187;BME280;56301;56.864;60.554;2023-03-13T04:40:21;98825.44;;;23.76;36.93
69187;BME280;56301;56.864;60.554;2023-03-13T04:43:16;98824.41;;;23.77;36.77
69187;BME280;56301;56.864;60.554;2023-03-13T04:45:57;98826.28;;;23.77;36.71
69187;BME280;56301;56.864;60.554;2023-03-13T04:48:34;98828.97;;;23.77;36.02
69187;BME280;56301;56.864;60.554;2023-03-13T04:51:19;98835.22;;;23.77;36.71
69187;BME280;56301;56.864;60.554;2023-03-13T04:54:12;98822.06;;;23.74;36.46
69187;BME280;56301;56.864;60.554;2023-03-13T04:56:57;98824.78;;;23.74;36.31
69187;BME280;56301;56.864;60.554;2023-03-13T04:59:22;98826.47;;;23.75;36.51
69187;BME280;56301;56.864;60.554;2023-03-13T05:02:00;98824.59;;;23.76;36.30
69187;BME280;56301;56.864;60.554;2023-03-13T05:04:35;98817.53;;;23.75;36.53
69187;BME280;56301;56.864;60.554;2023-03-13T05:07:23;98815.66;;;23.75;36.18
69187;BME280;56301;56.864;60.554;2023-03-13T05:10:18;98810.41;;;23.74;36.18
69187;BME280;56301;56.864;60.554;2023-03-13T05:13:20;98807.56;;;23.75;36.62
69187;BME280;56301;56.864;60.554;2023-03-13T05:16:05;98810.41;;;23.74;36.48
69187;BME280;56301;56.864;60.554;2023-03-13T05:18:58;98800.44;;;23.74;37.12
69187;BME280;56301;56.864;60.554;2023-03-13T05:21:39;98803.84;;;23.76;36.53
69187;BME280;56301;56.864;60.554;2023-03-13T05:24:08;98795.91;;;23.75;36.38
69187;BME280;56301;56.864;60.554;2023-03-13T05:26:33;98791.34;;;23.75;36.86
69187;BME280;56301;56.864;60.554;2023-03-13T05:29:14;98790.66;;;23.73;36.51
69187;BME280;56301;56.864;60.554;2023-03-13T05:31:57;98785.13;;;23.75;36.11
69187;BME280;56301;56.864;60.554;2023-03-13T05:34:49;98787.81;;;23.75;36.23
69187;BME280;56301;56.864;60.554;2023-03-13T05:37:29;98786.25;;;23.81;36.35
69187;BME280;56301;56.864;60.554;2023-03-13T05:40:09;98783.97;;;23.92;35.56
69187;BME280;56301;56.864;60.554;2023-03-13T05:42:58;98782.75;;;24.26;35.37
69187;BME280;56301;56.864;60.554;2023-03-13T05:45:45;98783.22;;;24.76;35.41
69187;BME280;56301;56.864;60.554;2023-03-13T05:48:34;98777.44;;;25.16;35.29
69187;BME280;56301;56.864;60.554;2023-03-13T05:51:29;98777.50;;;25.38;34.64
69187;BME280;56301;56.864;60.554;2023-03-13T05:54:11;98775.72;;;25.45;34.90
69187;BME280;56301;56.864;60.554;2023-03-13T05:56:57;98769.94;;;25.48;34.49
69187;BME280;56301;56.864;60.554;2023-03-13T05:59:39;98771.06;;;25.54;34.82
69187;BME280;56301;56.864;60.554;2023-03-13T06:02:35;98763.03;;;25.60;34.27
69187;BME280;56301;56.864;60.554;2023-03-13T06:04:59;98767.13;;;25.86;33.79
69187;BME280;56301;56.864;60.554;2023-03-13T06:07:22;98763.56;;;26.07;33.16
69187;BME280;56301;56.864;60.554;2023-03-13T06:09:45;98756.41;;;26.63;32.79
69187;BME280;56301;56.864;60.554;2023-03-13T06:12:08;98758.13;;;26.71;32.88
69187;BME280;56301;56.864;60.554;2023-03-13T06:14:31;98754.72;;;26.41;33.02
69187;BME280;56301;56.864;60.554;2023-03-13T06:17:19;98744.66;;;26.56;33.21
69187;BME280;56301;56.864;60.554;2023-03-13T06:19:42;98748.94;;;26.66;32.40
69187;BME280;56301;56.864;60.554;2023-03-13T06:22:04;98740.38;;;26.69;33.15
69187;BME280;56301;56.864;60.554;2023-03-13T06:24:27;98735.00;;;26.47;32.61
69187;BME280;56301;56.864;60.554;2023-03-13T06:26:49;98739.22;;;26.13;34.30
69187;BME280;56301;56.864;60.554;2023-03-13T06:29:12;98732.13;;;26.12;33.56
69187;BME280;56301;56.864;60.554;2023-03-13T06:31:35;98726.91;;;25.89;34.06
69187;BME280;56301;56.864;60.554;2023-03-13T06:33:57;98727.38;;;25.93;33.93
69187;BME280;56301;56.864;60.554;2023-03-13T06:36:21;98731.09;;;25.92;34.04
69187;BME280;56301;56.864;60.554;2023-03-13T06:38:43;98730.25;;;25.91;33.86
69187;BME280;56301;56.864;60.554;2023-03-13T06:41:06;98721.69;;;25.73;34.53
69187;BME280;56301;56.864;60.554;2023-03-13T06:43:28;98717.41;;;25.79;34.16
69187;BME280;56301;56.864;60.554;2023-03-13T06:45:51;98718.78;;;25.75;34.80
69187;BME280;56301;56.864;60.554;2023-03-13T06:48:14;98714.13;;;25.68;35.12
69187;BME280;56301;56.864;60.554;2023-03-13T06:50:37;98705.25;;;25.60;34.83
69187;BME280;56301;56.864;60.554;2023-03-13T06:52:59;98715.63;;;25.56;34.56
69187;BME280;56301;56.864;60.554;2023-03-13T06:55:23;98708.84;;;25.60;35.09
69187;BME280;56301;56.864;60.554;2023-03-13T06:57:48;98703.28;;;25.68;35.06
69187;BME280;56301;56.864;60.554;2023-03-13T07:00:11;98700.09;;;25.80;34.98
69187;BME280;56301;56.864;60.554;2023-03-13T07:02:33;98699.59;;;25.91;34.45
69187;BME280;56301;56.864;60.554;2023-03-13T07:04:55;98681.53;;;25.98;34.40
69187;BME280;56301;56.864;60.554;2023-03-13T07:07:18;98684.47;;;26.03;34.71
69187;BME280;56301;56.864;60.554;2023-03-13T07:09:40;98683.09;;;26.07;34.18
69187;BME280;56301;56.864;60.554;2023-03-13T07:12:03;98677.00;;;26.05;33.53
69187;BME280;56301;56.864;60.554;2023-03-13T07:14:25;98676.63;;;25.87;34.29
69187;BME280;56301;56.864;60.554;2023-03-13T07:16:48;98676.25;;;25.90;34.67
69187;BME280;56301;56.864;60.554;2023-03-13T07:19:10;98664.50;;;26.04;34.22
69187;BME280;56301;56.864;60.554;2023-03-13T07:21:33;98665.38;;;26.11;34.54
69187;BME280;56301;56.864;60.554;2023-03-13T07:23:55;98659.16;;;26.17;34.24
69187;BME280;56301;56.864;60.554;2023-03-13T07:26:18;98659.22;;;26.24;34.15
69187;BME280;56301;56.864;60.554;2023-03-13T07:28:40;98653.19;;;26.29;33.85
69187;BME280;56301;56.864;60.554;2023-03-13T07:31:20;98647.38;;;26.32;33.45
69187;BME280;56301;56.864;60.554;2023-03-13T07:33:43;98649.09;;;26.33;33.25
69187;BME280;56301;56.864;60.554;2023-03-13T07:36:06;98629.22;;;26.26;33.67
69187;BME280;56301;56.864;60.554;2023-03-13T07:38:29;98627.13;;;26.28;34.00
69187;BME280;56301;56.864;60.554;2023-03-13T07:40:52;98629.44;;;26.31;33.91
69187;BME280;56301;56.864;60.554;2023-03-13T07:43:15;98624.25;;;26.36;34.00
69187;BME280;56301;56.864;60.554;2023-03-13T07:45:37;98623.47;;;26.42;34.06
69187;BME280;56301;56.864;60.554;2023-03-13T07:48:00;98613.94;;;26.46;34.02
69187;BME280;56301;56.864;60.554;2023-03-13T07:50:22;98613.53;;;26.49;33.62
69187;BME280;56301;56.864;60.554;2023-03-13T07:52:45;98611.56;;;26.36;33.20
69187;BME280;56301;56.864;60.554;2023-03-13T07:55:07;98603.59;;;26.35;34.05
69187;BME280;56301;56.864;60.554;2023-03-13T07:57:30;98597.78;;;26.38;33.93
69187;BME280;56301;56.864;60.554;2023-03-13T07:59:52;98592.56;;;26.36;33.68
69187;BME280;56301;56.864;60.554;2023-03-13T08:02:14;98591.88;;;26.28;33.57
69187;BME280;56301;56.864;60.554;2023-03-13T08:04:37;98593.25;;;26.17;34.92
69187;BME280;56301;56.864;60.554;2023-03-13T08:06:59;98592.06;;;26.26;34.00
69187;BME280;56301;56.864;60.554;2023-03-13T08:09:22;98597.56;;;26.39;33.92
69187;BME280;56301;56.864;60.554;2023-03-13T08:11:44;98593.06;;;26.47;33.54
69187;BME280;56301;56.864;60.554;2023-03-13T08:14:07;98582.66;;;26.50;33.06
69187;BME280;56301;56.864;60.554;2023-03-13T08:16:30;98577.66;;;26.54;33.79
69187;BME280;56301;56.864;60.554;2023-03-13T08:18:54;98560.13;;;26.56;33.68
69187;BME280;56301;56.864;60.554;2023-03-13T08:21:18;98567.25;;;26.57;32.75
69187;BME280;56301;56.864;60.554;2023-03-13T08:23:41;98557.44;;;26.56;33.14
69187;BME280;56301;56.864;60.554;2023-03-13T08:26:07;98558.47;;;26.55;34.16
69187;BME280;56301;56.864;60.554;2023-03-13T08:28:31;98551.34;;;26.54;32.86
69187;BME280;56301;56.864;60.554;2023-03-13T08:30:53;98538.84;;;26.53;34.04
69187;BME280;56301;56.864;60.554;2023-03-13T08:33:16;98543.44;;;26.53;34.09
69187;BME280;56301;56.864;60.554;2023-03-13T08:35:38;98545.50;;;26.51;32.98
69187;BME280;56301;56.864;60.554;2023-03-13T08:38:01;98535.28;;;26.53;33.13
69187;BME280;56301;56.864;60.554;2023-03-13T08:40:23;98533.41;;;26.53;33.47
69187;BME280;56301;56.864;60.554;2023-03-13T08:42:45;98526.53;;;26.57;33.02
69187;BME280;56301;56.864;60.554;2023-03-13T08:45:08;98527.38;;;26.51;33.80
69187;BME280;56301;56.864;60.554;2023-03-13T08:47:31;98517.94;;;26.47;34.13
69187;BME280;56301;56.864;60.554;2023-03-13T08:49:53;98509.94;;;26.39;34.12
69187;BME280;56301;56.864;60.554;2023-03-13T08:52:15;98505.91;;;26.28;33.98
69187;BME280;56301;56.864;60.554;2023-03-13T08:54:38;98504.03;;;26.29;33.78
69187;BME280;56301;56.864;60.554;2023-03-13T08:57:00;98496.09;;;26.27;33.78
69187;BME280;56301;56.864;60.554;2023-03-13T08:59:23;98491.75;;;26.33;34.32
69187;BME280;56301;56.864;60.554;2023-03-13T09:01:45;98482.78;;;26.39;34.52
69187;BME280;56301;56.864;60.554;2023-03-13T09:04:08;98475.72;;;26.38;34.28
69187;BME280;56301;56.864;60.554;2023-03-13T09:06:31;98485.72;;;26.37;34.68
69187;BME280;56301;56.864;60.554;2023-03-13T09:08:55;98482.63;;;26.40;33.69
69187;BME280;56301;56.864;60.554;2023-03-13T09:11:19;98476.13;;;26.41;34.42
69187;BME280;56301;56.864;60.554;2023-03-13T09:13:45;98465.06;;;26.43;33.57
69187;BME280;56301;56.864;60.554;2023-03-13T09:16:13;98469.66;;;26.42;33.55
69187;BME280;56301;56.864;60.554;2023-03-13T09:18:36;98469.06;;;26.40;34.50
69187;BME280;56301;56.864;60.554;2023-03-13T09:20:58;98459.94;;;26.48;33.67
69187;BME280;56301;56.864;60.554;2023-03-13T09:23:22;98464.31;;;26.49;33.76
69187;BME280;56301;56.864;60.554;2023-03-13T09:25:44;98447.41;;;26.47;33.61
69187;BME280;56301;56.864;60.554;2023-03-13T09:28:07;98440.28;;;26.46;33.61
69187;BME280;56301;56.864;60.554;2023-03-13T09:30:29;98442.81;;;26.48;34.19
69187;BME280;56301;56.864;60.554;2023-03-13T09:32:52;98438.22;;;26.48;34.62
69187;BME280;56301;56.864;60.554;2023-03-13T09:35:14;98444.91;;;26.52;34.92
69187;BME280;56301;56.864;60.554;2023-03-13T09:37:37;98429.47;;;26.53;34.71
69187;BME280;56301;56.864;60.554;2023-03-13T09:40:00;98423.22;;;26.52;33.84
69187;BME280;56301;56.864;60.554;2023-03-13T09:42:25;98419.25;;;26.55;34.42
69187;BME280;56301;56.864;60.554;2023-03-13T09:44:52;98416.13;;;26.51;34.67
69187;BME280;56301;56.864;60.554;2023-03-13T09:47:51;98411.09;;;26.48;34.11
69187;BME280;56301;56.864;60.554;2023-03-13T09:50:11;98397.72;;;26.47;34.83
69187;BME280;56301;56.864;60.554;2023-03-13T09:52:39;98400.25;;;26.48;34.87
69187;BME280;56301;56.864;60.554;2023-03-13T09:57:30;98393.69;;;26.29;34.63
69187;BME280;56301;56.864;60.554;2023-03-13T10:02:31;98392.53;;;26.10;34.93
69187;BME280;56301;56.864;60.554;2023-03-13T10:07:35;98401.53;;;26.11;34.80
69187;BME280;56301;56.864;60.554;2023-03-13T10:10:00;98405.69;;;26.13;34.45
69187;BME280;56301;56.864;60.554;2023-03-13T10:12:26;98407.56;;;26.13;35.10
69187;BME280;56301;56.864;60.554;2023-03-13T10:14:56;98404.59;;;26.01;34.77
69187;BME280;56301;56.864;60.554;2023-03-13T10:19:54;98399.97;;;25.95;35.52
69187;BME280;56301;56.864;60.554;2023-03-13T10:22:19;98393.97;;;26.06;34.89
69187;BME280;56301;56.864;60.554;2023-03-13T10:27:07;98391.97;;;26.22;35.10
69187;BME280;56301;56.864;60.554;2023-03-13T10:29:30;98393.69;;;26.29;34.76
69187;BME280;56301;56.864;60.554;2023-03-13T10:31:57;98390.75;;;26.31;35.09
69187;BME280;56301;56.864;60.554;2023-03-13T10:34:20;98379.91;;;26.31;34.36
69187;BME280;56301;56.864;60.554;2023-03-13T10:36:44;98378.44;;;26.28;34.31
69187;BME280;56301;56.864;60.554;2023-03-13T10:39:07;98376.72;;;26.21;35.55
69187;BME280;56301;56.864;60.554;2023-03-13T10:41:36;98375.06;;;26.20;34.68
69187;BME280;56301;56.864;60.554;2023-03-13T10:44:01;98371.72;;;26.11;35.42
69187;BME280;56301;56.864;60.554;2023-03-13T10:46:25;98362.47;;;25.99;35.71
69187;BME280;56301;56.864;60.554;2023-03-13T10:48:48;98390.97;;;25.88;35.47
69187;BME280;56301;56.864;60.554;2023-03-13T10:51:18;98366.28;;;25.76;35.77
69187;BME280;56301;56.864;60.554;2023-03-13T10:53:41;98372.69;;;25.68;36.10
69187;BME280;56301;56.864;60.554;2023-03-13T10:58:33;98348.44;;;25.54;36.21
69187;BME280;56301;56.864;60.554;2023-03-13T11:03:52;98348.78;;;25.44;36.61
69187;BME280;56301;56.864;60.554;2023-03-13T11:06:28;98334.63;;;25.42;35.94
69187;BME280;56301;56.864;60.554;2023-03-13T11:08:58;98334.19;;;25.45;36.14
69187;BME280;56301;56.864;60.554;2023-03-13T11:11:20;98326.72;;;25.47;36.12
69187;BME280;56301;56.864;60.554;2023-03-13T11:13:43;98327.94;;;25.44;36.18
69187;BME280;56301;56.864;60.554;2023-03-13T11:16:22;98319.81;;;25.44;35.17
69187;BME280;56301;56.864;60.554;2023-03-13T11:21:19;98317.88;;;25.32;35.51
69187;BME280;56301;56.864;60.554;2023-03-13T11:23:46;98309.72;;;25.25;35.89
69187;BME280;56301;56.864;60.554;2023-03-13T11:26:15;98309.28;;;25.21;36.06
69187;BME280;56301;56.864;60.554;2023-03-13T11:31:13;98311.09;;;25.14;36.17
69187;BME280;56301;56.864;60.554;2023-03-13T11:43:51;98280.16;;;25.02;35.46
69187;BME280;56301;56.864;60.554;2023-03-13T11:48:55;98277.59;;;24.94;35.71
69187;BME280;56301;56.864;60.554;2023-03-13T11:56:35;98267.81;;;24.93;36.67
69187;BME280;56301;56.864;60.554;2023-03-13T12:01:25;98265.88;;;24.87;36.67
69187;BME280;56301;56.864;60.554;2023-03-13T12:08:44;98249.63;;;24.87;36.56
69187;BME280;56301;56.864;60.554;2023-03-13T12:11:12;98251.28;;;24.81;36.33
69187;BME280;56301;56.864;60.554;2023-03-13T12:13:38;98249.16;;;24.77;36.62
69187;BME280;56301;56.864;60.554;2023-03-13T12:16:05;98247.88;;;24.72;37.40
69187;BME280;56301;56.864;60.554;2023-03-13T12:18:31;98242.88;;;24.69;37.36
69187;BME280;56301;56.864;60.554;2023-03-13T12:23:19;98239.91;;;24.64;36.33
69187;BME280;56301;56.864;60.554;2023-03-13T12:25:44;98240.28;;;24.61;37.88
69187;BME280;56301;56.864;60.554;2023-03-13T12:30:47;98236.13;;;24.59;37.04
69187;BME280;56301;56.864;60.554;2023-03-13T12:33:18;98239.41;;;24.54;36.42
69187;BME280;56301;56.864;60.554;2023-03-13T12:35:48;98231.69;;;24.51;36.13
69187;BME280;56301;56.864;60.554;2023-03-13T12:43:38;98221.66;;;24.45;36.69
69187;BME280;56301;56.864;60.554;2023-03-13T12:58:37;98219.22;;;24.35;36.12
69187;BME280;56301;56.864;60.554;2023-03-13T13:01:01;98205.09;;;24.33;36.29
69187;BME280;56301;56.864;60.554;2023-03-13T13:03:32;98211.50;;;24.32;36.62
69187;BME280;56301;56.864;60.554;2023-03-13T13:06:14;98211.34;;;24.34;36.51
69187;BME280;56301;56.864;60.554;2023-03-13T13:08:41;98200.69;;;24.32;37.68
69187;BME280;56301;56.864;60.554;2023-03-13T13:13:45;98200.44;;;24.27;36.96
69187;BME280;56301;56.864;60.554;2023-03-13T13:16:18;98200.00;;;24.23;36.72
69187;BME280;56301;56.864;60.554;2023-03-13T13:18:42;98197.47;;;24.22;36.61
69187;BME280;56301;56.864;60.554;2023-03-13T13:23:31;98191.25;;;24.21;36.56
69187;BME280;56301;56.864;60.554;2023-03-13T13:25:55;98195.38;;;24.17;37.04
69187;BME280;56301;56.864;60.554;2023-03-13T13:28:38;98195.38;;;24.17;36.66
69187;BME280;56301;56.864;60.554;2023-03-13T13:31:00;98197.06;;;24.18;36.00
69187;BME280;56301;56.864;60.554;2023-03-13T13:38:30;98186.19;;;24.12;36.76
69187;BME280;56301;56.864;60.554;2023-03-13T13:43:24;98195.28;;;24.11;35.85
69187;BME280;56301;56.864;60.554;2023-03-13T13:48:26;98181.16;;;24.09;35.88
69187;BME280;56301;56.864;60.554;2023-03-13T13:53:30;98183.19;;;24.07;36.68
69187;BME280;56301;56.864;60.554;2023-03-13T13:55:53;98186.13;;;24.05;36.29
69187;BME280;56301;56.864;60.554;2023-03-13T13:58:19;98170.28;;;24.02;35.83
69187;BME280;56301;56.864;60.554;2023-03-13T14:00:44;98179.44;;;24.01;36.53
69187;BME280;56301;56.864;60.554;2023-03-13T14:03:26;98187.53;;;24.01;36.10
69187;BME280;56301;56.864;60.554;2023-03-13T14:05:53;98177.72;;;24.00;35.92
69187;BME280;56301;56.864;60.554;2023-03-13T14:08:25;98181.47;;;23.99;36.49
69187;BME280;56301;56.864;60.554;2023-03-13T14:13:29;98166.47;;;23.96;36.50
69187;BME280;56301;56.864;60.554;2023-03-13T14:15:52;98160.88;;;23.98;36.14
69187;BME280;56301;56.864;60.554;2023-03-13T14:20:54;98166.03;;;23.93;35.97
69187;BME280;56301;56.864;60.554;2023-03-13T14:23:34;98174.13;;;23.93;35.56
69187;BME280;56301;56.864;60.554;2023-03-13T14:25:57;98167.72;;;23.94;36.56
69187;BME280;56301;56.864;60.554;2023-03-13T14:28:27;98158.78;;;23.93;35.87
69187;BME280;56301;56.864;60.554;2023-03-13T14:30:51;98155.22;;;23.93;35.63